This is the latest recevied weather packets stored in our database for station/object N5PLO-10. If no packets are shown the sender has not sent any weather packets the latest 10 day(s).
| Time | Temp. | Humidity | Pressure | Rain* | Wind** | Luminosity | Snow |
|---|---|---|---|---|---|---|---|
| 1777748145 | 23.89° C | 45% | 1024.4 hPa | 0 mm | - | 762 W/m² | - |
| 1777747843 | 26.11° C | 44% | 1024.4 hPa | 0 mm | - | 768 W/m² | - |
| 1777747538 | 24.44° C | 49% | 1024.4 hPa | 0 mm | - | 769 W/m² | - |
| 1777747234 | 25° C | 48% | 1024.5 hPa | 1.78 mm | - | 771 W/m² | - |
| 1777746931 | 24.44° C | 47% | 1024.5 hPa | 0 mm | - | 771 W/m² | - |
| 1777746627 | 24.44° C | 47% | 1024.6 hPa | 0 mm | - | 698 W/m² | - |
| 1777746322 | 24.44° C | 44% | 1024.7 hPa | 0 mm | - | 793 W/m² | - |
| 1777746018 | 24.44° C | 49% | 1024.7 hPa | 0 mm | - | 787 W/m² | - |
| 1777745716 | 24.44° C | 50% | 1024.8 hPa | 0 mm | - | 794 W/m² | - |
| 1777745415 | 24.44° C | 46% | 1024.7 hPa | 0 mm | - | 780 W/m² | - |
| 1777745111 | 23.33° C | 50% | 1024.8 hPa | 0 mm | - | 777 W/m² | - |
| 1777744808 | 23.33° C | 48% | 1024.9 hPa | 0 mm | - | 773 W/m² | - |
| 1777744502 | 23.33° C | 51% | 1024.7 hPa | 0 mm | - | 772 W/m² | - |
| 1777744198 | 22.78° C | 49% | 1024.7 hPa | 0 mm | - | 771 W/m² | - |
| 1777743895 | 23.33° C | 49% | 1024.7 hPa | 0 mm | - | 768 W/m² | - |
| 1777743592 | 24.44° C | 49% | 1024.8 hPa | 0 mm | - | 755 W/m² | - |
| 1777743289 | 23.33° C | 54% | 1024.6 hPa | 0 mm | - | 759 W/m² | - |
| 1777742987 | 23.33° C | 50% | 1024.7 hPa | 0 mm | - | 758 W/m² | - |
| 1777742684 | 23.33° C | 51% | 1024.7 hPa | 0 mm | - | 608 W/m² | - |
| 1777742380 | 22.22° C | 56% | 1024.6 hPa | 0 mm | - | 750 W/m² | - |
| 1777742076 | 22.22° C | 57% | 1024.5 hPa | 0 mm | - | 747 W/m² | - |
| 1777741774 | 21.67° C | 59% | 1024.6 hPa | 1.78 mm | - | 734 W/m² | - |
| 1777741470 | 22.22° C | 54% | 1024.5 hPa | 1.78 mm | - | 728 W/m² | - |
| 1777741166 | 22.22° C | 54% | 1024.3 hPa | 0 mm | - | 725 W/m² | - |
| 1777740864 | 22.22° C | 55% | 1024.5 hPa | 0 mm | - | 714 W/m² | - |
* Rain latest hour (hover to see other rain measurements)
** Current wind speed in m/s (hover to see current wind gust speed)